Time;durP1;ratioP1;P1;durP2;ratioP2;P2;SDS_P1;SDS_P2;PMS_P1;PMS_P2;Temp;Humidity;BMP_temperature;BMP_pressure;BME280_temperature;BME280_humidity;BME280_pressure;Samples;Min_cycle;Max_cycle;Signal;HPM_P1;HPM_P2
2021/11/09 00:00:06;;;;;;;16.88;7.45;;;;;;;;;;5027180;28;20620;-68
2021/11/09 00:02:32;;;;;;;18.70;7.75;;;;;;;;;;5026848;28;20045;-69
2021/11/09 00:05:00;;;;;;;19.17;7.85;;;;;;;;;;5019940;28;20053;-69
2021/11/09 00:07:35;;;;;;;16.58;7.47;;;;;;;;;;5022541;28;20053;-68
2021/11/09 00:10:08;;;;;;;15.85;7.18;;;;;;;;;;5017875;28;20060;-69
2021/11/09 00:12:36;;;;;;;16.05;8.07;;;;;;;;;;5029140;28;20160;-68
2021/11/09 00:15:04;;;;;;;15.87;7.20;;;;;;;;;;5039986;28;20139;-68
2021/11/09 00:17:30;;;;;;;16.30;7.40;;;;;;;;;;5046333;28;20350;-69
2021/11/09 00:19:57;;;;;;;16.75;6.57;;;;;;;;;;5044761;28;20084;-69
2021/11/09 00:22:25;;;;;;;16.38;7.03;;;;;;;;;;5033392;28;20140;-68
2021/11/09 00:24:51;;;;;;;19.70;7.68;;;;;;;;;;5042745;28;20049;-68
2021/11/09 00:27:18;;;;;;;13.20;6.78;;;;;;;;;;5021100;28;20132;-68
2021/11/09 00:29:44;;;;;;;21.58;7.32;;;;;;;;;;5046324;28;20057;-68
2021/11/09 00:32:11;;;;;;;15.68;7.63;;;;;;;;;;5041021;28;20052;-68
2021/11/09 00:34:37;;;;;;;16.67;6.80;;;;;;;;;;5046126;28;20099;-68
2021/11/09 00:37:04;;;;;;;20.63;7.72;;;;;;;;;;5046800;28;20147;-69
2021/11/09 00:39:31;;;;;;;15.48;6.93;;;;;;;;;;5043970;28;20065;-69
2021/11/09 00:41:58;;;;;;;21.50;6.95;;;;;;;;;;5043322;28;20053;-69
2021/11/09 00:44:25;;;;;;;16.85;7.18;;;;;;;;;;5024765;28;20093;-69
2021/11/09 00:46:51;;;;;;;21.40;7.47;;;;;;;;;;5030530;28;20053;-69
2021/11/09 00:49:19;;;;;;;18.60;7.13;;;;;;;;;;5019244;28;20144;-68
2021/11/09 00:51:45;;;;;;;17.55;7.47;;;;;;;;;;5025458;28;20054;-69
2021/11/09 00:54:12;;;;;;;22.95;7.43;;;;;;;;;;5033685;28;20052;-69
2021/11/09 00:56:39;;;;;;;20.88;8.18;;;;;;;;;;5041133;28;20422;-68
2021/11/09 00:59:05;;;;;;;18.00;7.70;;;;;;;;;;5049345;28;20071;-70
2021/11/09 01:01:32;;;;;;;22.73;7.28;;;;;;;;;;5024931;28;20172;-68
2021/11/09 01:03:59;;;;;;;19.13;6.85;;;;;;;;;;5031594;28;20053;-69
2021/11/09 01:06:25;;;;;;;14.82;7.03;;;;;;;;;;5024988;28;20053;-70
2021/11/09 01:08:52;;;;;;;13.65;6.97;;;;;;;;;;5029768;28;20084;-69
2021/11/09 01:11:19;;;;;;;14.40;7.25;;;;;;;;;;5030286;28;20085;-69
2021/11/09 01:13:46;;;;;;;20.38;7.05;;;;;;;;;;5034759;28;20045;-69
2021/11/09 01:16:13;;;;;;;17.98;7.75;;;;;;;;;;5045324;28;20048;-69
2021/11/09 01:18:41;;;;;;;23.13;7.45;;;;;;;;;;5038184;28;20049;-68
2021/11/09 01:21:08;;;;;;;15.63;6.72;;;;;;;;;;5049752;28;20149;-68
2021/11/09 01:23:35;;;;;;;20.17;7.07;;;;;;;;;;5041641;28;20836;-69
2021/11/09 01:26:01;;;;;;;20.40;6.45;;;;;;;;;;5050036;28;20049;-69
2021/11/09 01:28:28;;;;;;;13.13;6.60;;;;;;;;;;5050977;28;20417;-69
2021/11/09 01:30:54;;;;;;;19.23;7.00;;;;;;;;;;5040961;28;20144;-69
2021/11/09 01:33:22;;;;;;;20.85;7.55;;;;;;;;;;5046222;28;20045;-69
2021/11/09 01:35:48;;;;;;;19.55;8.57;;;;;;;;;;5043353;28;20148;-69
2021/11/09 01:38:14;;;;;;;16.70;7.75;;;;;;;;;;5050286;28;20056;-69
2021/11/09 01:40:41;;;;;;;18.60;8.13;;;;;;;;;;5042677;28;20103;-68
2021/11/09 01:43:09;;;;;;;20.70;8.02;;;;;;;;;;5049164;28;20049;-69
2021/11/09 01:45:35;;;;;;;17.67;8.25;;;;;;;;;;5037511;28;20049;-68
2021/11/09 01:48:02;;;;;;;14.45;8.23;;;;;;;;;;5049092;28;20052;-68
2021/11/09 01:50:32;;;;;;;19.33;7.95;;;;;;;;;;5049234;28;20049;-68
2021/11/09 01:52:59;;;;;;;17.08;7.70;;;;;;;;;;5042374;28;20060;-68
2021/11/09 01:55:28;;;;;;;19.80;7.93;;;;;;;;;;5047521;28;20526;-68
2021/11/09 01:57:55;;;;;;;20.05;8.30;;;;;;;;;;5038035;28;20701;-68
2021/11/09 02:00:25;;;;;;;21.00;8.68;;;;;;;;;;5045326;28;20565;-68
2021/11/09 02:02:52;;;;;;;17.83;8.27;;;;;;;;;;5042718;28;20076;-68
2021/11/09 02:05:19;;;;;;;17.92;8.57;;;;;;;;;;5049609;28;20052;-68
2021/11/09 02:07:52;;;;;;;13.77;7.70;;;;;;;;;;5047885;28;20139;-68
2021/11/09 02:10:21;;;;;;;20.67;7.95;;;;;;;;;;5041739;28;20489;-68
2021/11/09 02:12:47;;;;;;;20.70;8.82;;;;;;;;;;5044457;28;20048;-68
2021/11/09 02:15:14;;;;;;;16.50;7.03;;;;;;;;;;5038898;28;20088;-68
2021/11/09 02:17:42;;;;;;;18.20;8.05;;;;;;;;;;5049105;28;20127;-68
2021/11/09 02:20:10;;;;;;;17.85;7.93;;;;;;;;;;5043174;28;20458;-68
2021/11/09 02:22:37;;;;;;;24.67;8.75;;;;;;;;;;5049270;28;20136;-68
2021/11/09 02:25:06;;;;;;;24.50;8.82;;;;;;;;;;5047790;28;20095;-67
2021/11/09 02:27:32;;;;;;;18.00;8.00;;;;;;;;;;5037348;28;20148;-68
2021/11/09 02:29:58;;;;;;;17.48;7.57;;;;;;;;;;5049080;28;20151;-68
2021/11/09 02:32:25;;;;;;;19.42;7.47;;;;;;;;;;5042157;28;20542;-68
2021/11/09 02:34:51;;;;;;;21.48;7.32;;;;;;;;;;5048444;28;20092;-68
2021/11/09 02:37:18;;;;;;;19.27;8.40;;;;;;;;;;5042968;28;20525;-68
2021/11/09 02:39:44;;;;;;;15.18;7.80;;;;;;;;;;5044663;28;20057;-68
2021/11/09 02:42:13;;;;;;;17.00;7.60;;;;;;;;;;5043950;28;20080;-68
2021/11/09 02:44:40;;;;;;;;;;;;;;;;;;5045291;28;20076;-68
2021/11/09 02:47:08;;;;;;;20.88;6.93;;;;;;;;;;5048786;28;19921;-68
2021/11/09 02:52:19;;;;;;;16.48;7.45;;;;;;;;;;5048534;28;20132;-68
2021/11/09 02:54:48;;;;;;;14.82;6.90;;;;;;;;;;5034368;28;20521;-68
2021/11/09 02:57:33;;;;;;;;;;;;;;;;;;5046825;28;20048;-68
2021/11/09 03:00:39;;;;;;;16.15;7.65;;;;;;;;;;5041061;28;19925;-68
2021/11/09 03:02:56;;;;;;;20.38;7.00;;;;;;;;;;5027184;28;20053;-68
2021/11/09 03:07:59;;;;;;;16.27;7.47;;;;;;;;;;5023796;28;20053;-68
2021/11/09 03:12:52;;;;;;;15.68;7.20;;;;;;;;;;5026285;28;20045;-68
2021/11/09 03:15:24;;;;;;;12.50;6.80;;;;;;;;;;5047771;28;20045;-68
2021/11/09 03:17:56;;;;;;;13.88;6.55;;;;;;;;;;5039629;28;20060;-68
2021/11/09 03:20:30;;;;;;;15.07;7.47;;;;;;;;;;5027361;28;20060;-68
2021/11/09 03:40:01;;;;;;;19.75;8.07;;;;;;;;;;5021554;28;20049;-68
2021/11/09 03:45:11;;;;;;;28.63;11.30;;;;;;;;;;5037106;28;20052;-68
2021/11/09 03:47:42;;;;;;;34.85;11.77;;;;;;;;;;5042812;28;20056;-69
2021/11/09 03:50:09;;;;;;;21.30;9.82;;;;;;;;;;5046118;28;20140;-68
2021/11/09 03:52:46;;;;;;;14.07;9.05;;;;;;;;;;5041935;28;20154;-68
2021/11/09 03:55:22;;;;;;;18.42;8.55;;;;;;;;;;5041951;28;20059;-68
2021/11/09 03:58:04;;;;;;;23.58;9.98;;;;;;;;;;5041374;28;20049;-68
2021/11/09 04:00:45;;;;;;;23.13;9.82;;;;;;;;;;5035486;28;20075;-67
2021/11/09 04:06:09;;;;;;;24.60;9.95;;;;;;;;;;5047692;28;20091;-69
2021/11/09 04:08:44;;;;;;;19.90;8.65;;;;;;;;;;5043698;28;20159;-69
2021/11/09 04:11:20;;;;;;;23.60;9.30;;;;;;;;;;5052018;28;20067;-69
2021/11/09 04:14:04;;;;;;;20.90;9.80;;;;;;;;;;5043875;28;20482;-68
2021/11/09 04:35:19;;;;;;;22.75;10.02;;;;;;;;;;5050642;28;20049;-69
2021/11/09 04:41:01;;;;;;;25.90;10.65;;;;;;;;;;5046372;28;20053;-69
2021/11/09 05:02:00;;;;;;;22.30;10.85;;;;;;;;;;5043358;28;20056;-69
2021/11/09 05:09:44;;;;;;;22.13;10.80;;;;;;;;;;5048408;28;20053;-68
2021/11/09 05:12:10;;;;;;;27.50;10.23;;;;;;;;;;5026010;28;20418;-69
2021/11/09 05:14:37;;;;;;;27.45;11.80;;;;;;;;;;5068649;28;20465;-69
2021/11/09 05:17:04;;;;;;;26.77;10.98;;;;;;;;;;5063295;28;20052;-68
2021/11/09 05:19:31;;;;;;;23.45;11.00;;;;;;;;;;5065686;28;20044;-69
2021/11/09 05:21:58;;;;;;;23.77;10.75;;;;;;;;;;5059436;28;20059;-68
2021/11/09 05:24:24;;;;;;;20.02;10.35;;;;;;;;;;5070067;28;20524;-69
2021/11/09 05:26:51;;;;;;;23.58;10.18;;;;;;;;;;5062235;28;20068;-69
2021/11/09 05:29:17;;;;;;;18.77;10.20;;;;;;;;;;5023292;28;20049;-69
2021/11/09 05:31:44;;;;;;;23.10;10.73;;;;;;;;;;5030335;28;20054;-68
2021/11/09 05:34:10;;;;;;;25.15;9.60;;;;;;;;;;5018832;28;20049;-68
2021/11/09 05:36:39;;;;;;;20.98;10.40;;;;;;;;;;5025134;28;20046;-68
2021/11/09 05:39:31;;;;;;;;;;;;;;;;;;5023700;28;20049;-68
2021/11/09 05:41:55;;;;;;;15.70;9.23;;;;;;;;;;5029099;28;19925;-68
2021/11/09 05:44:21;;;;;;;24.95;10.52;;;;;;;;;;5023634;28;20054;-68
2021/11/09 05:46:48;;;;;;;23.10;10.15;;;;;;;;;;5029354;28;20730;-69
2021/11/09 05:49:14;;;;;;;25.05;11.13;;;;;;;;;;5021603;28;20053;-68
2021/11/09 05:51:41;;;;;;;27.75;11.55;;;;;;;;;;5020899;28;20398;-68
2021/11/09 05:54:09;;;;;;;31.10;12.77;;;;;;;;;;5029918;28;20418;-69
2021/11/09 05:56:35;;;;;;;39.53;15.98;;;;;;;;;;5030896;28;20569;-68
2021/11/09 05:59:02;;;;;;;29.35;13.73;;;;;;;;;;5029973;28;20049;-69
2021/11/09 06:01:28;;;;;;;25.40;10.75;;;;;;;;;;5002902;28;20058;-69
2021/11/09 06:03:54;;;;;;;21.85;11.30;;;;;;;;;;5026324;28;20052;-69
2021/11/09 06:06:21;;;;;;;26.38;12.10;;;;;;;;;;5031274;28;20049;-68
2021/11/09 06:08:50;;;;;;;24.70;12.63;;;;;;;;;;5027367;28;20077;-68
2021/11/09 06:11:17;;;;;;;29.13;11.80;;;;;;;;;;5029247;28;20067;-68
2021/11/09 06:13:43;;;;;;;25.35;12.00;;;;;;;;;;5046012;28;20048;-69
2021/11/09 06:16:10;;;;;;;26.70;11.35;;;;;;;;;;5065369;28;20052;-68
2021/11/09 06:18:36;;;;;;;27.10;11.88;;;;;;;;;;5057946;28;20048;-69
2021/11/09 06:21:02;;;;;;;26.48;11.18;;;;;;;;;;5051521;28;20072;-69
2021/11/09 06:23:29;;;;;;;27.08;11.93;;;;;;;;;;5028785;28;20058;-69
2021/11/09 06:25:56;;;;;;;24.48;11.95;;;;;;;;;;5021801;28;20049;-68
2021/11/09 06:28:22;;;;;;;24.05;11.65;;;;;;;;;;5028646;28;20052;-68
2021/11/09 06:30:49;;;;;;;28.35;12.90;;;;;;;;;;5016736;28;20064;-69
2021/11/09 06:33:16;;;;;;;30.70;15.82;;;;;;;;;;5024670;28;20049;-68
2021/11/09 06:35:43;;;;;;;30.90;14.38;;;;;;;;;;5021967;28;20057;-68
2021/11/09 06:38:09;;;;;;;23.27;12.07;;;;;;;;;;5028636;28;20060;-68
2021/11/09 06:40:36;;;;;;;25.75;11.52;;;;;;;;;;5028767;28;20063;-68
2021/11/09 06:43:02;;;;;;;26.13;12.07;;;;;;;;;;5020142;28;20060;-68
2021/11/09 06:45:29;;;;;;;30.20;12.85;;;;;;;;;;5022216;28;20049;-69
2021/11/09 06:47:55;;;;;;;31.08;12.27;;;;;;;;;;5021736;28;20049;-69
2021/11/09 06:50:22;;;;;;;28.20;12.70;;;;;;;;;;5028319;28;20057;-69
2021/11/09 06:52:48;;;;;;;27.65;13.23;;;;;;;;;;5022111;28;20245;-69
2021/11/09 06:55:15;;;;;;;30.30;13.25;;;;;;;;;;5033876;28;20045;-69
2021/11/09 06:57:42;;;;;;;42.22;15.55;;;;;;;;;;5034988;28;20064;-69
2021/11/09 07:00:10;;;;;;;34.80;14.25;;;;;;;;;;5016674;28;20084;-68
2021/11/09 07:02:37;;;;;;;34.33;15.90;;;;;;;;;;5066333;28;20048;-69
2021/11/09 07:05:04;;;;;;;37.17;14.05;;;;;;;;;;5061380;28;20063;-69
2021/11/09 07:07:31;;;;;;;35.53;15.00;;;;;;;;;;5036026;28;20055;-69
2021/11/09 07:09:57;;;;;;;40.47;14.38;;;;;;;;;;5027667;28;20537;-69
2021/11/09 07:12:27;;;;;;;37.38;14.18;;;;;;;;;;5024279;28;20057;-69
2021/11/09 07:14:53;;;;;;;33.25;13.38;;;;;;;;;;5029816;28;20069;-69
2021/11/09 07:17:20;;;;;;;30.80;13.10;;;;;;;;;;5021344;28;20053;-69
2021/11/09 07:19:53;;;;;;;31.60;14.10;;;;;;;;;;5028554;28;20041;-69
2021/11/09 07:22:20;;;;;;;39.05;13.43;;;;;;;;;;5024133;28;20479;-69
2021/11/09 07:24:47;;;;;;;37.17;12.82;;;;;;;;;;5023487;28;20049;-69
2021/11/09 07:27:14;;;;;;;37.15;14.80;;;;;;;;;;5017724;28;20052;-69
2021/11/09 07:29:45;;;;;;;31.67;13.63;;;;;;;;;;5027503;28;20049;-69
2021/11/09 07:32:11;;;;;;;32.00;13.55;;;;;;;;;;5028202;28;20049;-69
2021/11/09 07:34:38;;;;;;;31.98;13.18;;;;;;;;;;5021609;28;20060;-69
2021/11/09 07:37:06;;;;;;;30.98;12.70;;;;;;;;;;5028058;28;20059;-68
2021/11/09 07:39:32;;;;;;;30.10;11.98;;;;;;;;;;5026301;28;20046;-68
2021/11/09 07:42:04;;;;;;;28.08;12.35;;;;;;;;;;5046340;28;20084;-68
2021/11/09 07:44:30;;;;;;;29.65;13.18;;;;;;;;;;5024130;28;20084;-69
2021/11/09 07:46:56;;;;;;;34.13;12.73;;;;;;;;;;5030538;28;20049;-68
2021/11/09 07:49:23;;;;;;;36.72;13.57;;;;;;;;;;5030170;28;20048;-69
2021/11/09 07:51:50;;;;;;;42.17;15.05;;;;;;;;;;5019658;28;20050;-68
2021/11/09 07:54:19;;;;;;;36.40;13.68;;;;;;;;;;5025057;28;20050;-68
2021/11/09 07:56:46;;;;;;;31.80;13.20;;;;;;;;;;5042862;28;20449;-68
2021/11/09 07:59:24;;;;;;;35.78;13.02;;;;;;;;;;5049755;28;20080;-68
2021/11/09 08:02:04;;;;;;;27.40;12.75;;;;;;;;;;5056194;28;20056;-68
2021/11/09 08:04:43;;;;;;;33.53;13.35;;;;;;;;;;5069847;28;20672;-69
2021/11/09 08:07:18;;;;;;;41.90;15.48;;;;;;;;;;5038727;28;20054;-69
2021/11/09 08:09:44;;;;;;;36.75;13.82;;;;;;;;;;5069529;28;20413;-69
2021/11/09 08:12:11;;;;;;;34.42;13.98;;;;;;;;;;5069470;28;20056;-69
2021/11/09 08:14:38;;;;;;;50.15;16.10;;;;;;;;;;5043597;28;20073;-69
2021/11/09 08:17:06;;;;;;;36.05;14.55;;;;;;;;;;5069863;28;20084;-68
2021/11/09 08:19:33;;;;;;;45.60;16.90;;;;;;;;;;5058616;28;20058;-69
2021/11/09 08:21:59;;;;;;;46.80;16.23;;;;;;;;;;5047677;28;20048;-69
2021/11/09 08:24:26;;;;;;;64.13;17.92;;;;;;;;;;5062989;28;20158;-69
2021/11/09 08:26:54;;;;;;;58.72;17.33;;;;;;;;;;5069185;28;20644;-69
2021/11/09 08:29:27;;;;;;;48.33;14.43;;;;;;;;;;5065767;28;20382;-69
2021/11/09 08:31:54;;;;;;;37.97;14.93;;;;;;;;;;5065929;28;20048;-69
2021/11/09 08:34:21;;;;;;;46.13;16.55;;;;;;;;;;5064152;28;20053;-69
2021/11/09 08:36:48;;;;;;;38.78;14.40;;;;;;;;;;5061359;28;20045;-69
2021/11/09 08:39:20;;;;;;;41.45;14.68;;;;;;;;;;5069454;28;20048;-69
2021/11/09 08:41:53;;;;;;;38.50;12.98;;;;;;;;;;5063369;28;20079;-69
2021/11/09 08:44:22;;;;;;;29.05;12.70;;;;;;;;;;5069340;28;20059;-69
2021/11/09 08:46:51;;;;;;;39.22;14.15;;;;;;;;;;5040119;28;20060;-69
2021/11/09 08:49:19;;;;;;;41.55;13.98;;;;;;;;;;5067184;28;20049;-69
2021/11/09 08:51:50;;;;;;;33.50;12.27;;;;;;;;;;5051295;28;20410;-69
2021/11/09 08:54:21;;;;;;;36.72;12.43;;;;;;;;;;5063176;28;20289;-69
2021/11/09 08:56:56;;;;;;;32.53;13.35;;;;;;;;;;5052121;28;20048;-69
2021/11/09 09:04:43;;;;;;;43.95;13.55;;;;;;;;;;5066379;28;20412;-69
2021/11/09 09:07:10;;;;;;;36.13;13.82;;;;;;;;;;5072073;28;20095;-69
2021/11/09 09:09:36;;;;;;;26.45;11.85;;;;;;;;;;5066223;28;20051;-69
2021/11/09 09:12:04;;;;;;;43.08;12.88;;;;;;;;;;5071609;28;20052;-69
2021/11/09 09:14:30;;;;;;;42.83;13.82;;;;;;;;;;5047375;28;20048;-69
2021/11/09 09:16:58;;;;;;;41.38;13.38;;;;;;;;;;5045841;28;20049;-70
2021/11/09 09:19:32;;;;;;;36.47;13.77;;;;;;;;;;5052850;28;20044;-69
2021/11/09 09:22:11;;;;;;;42.13;15.15;;;;;;;;;;5046520;28;20080;-69
2021/11/09 09:24:46;;;;;;;32.42;13.50;;;;;;;;;;5052252;28;20041;-70
2021/11/09 09:27:22;;;;;;;38.35;13.23;;;;;;;;;;5040395;28;20048;-69
2021/11/09 09:30:08;;;;;;;38.60;13.75;;;;;;;;;;5048554;28;20061;-69
2021/11/09 09:32:53;;;;;;;40.30;14.00;;;;;;;;;;5028087;28;20068;-69
2021/11/09 09:57:24;;;;;;;36.08;12.43;;;;;;;;;;4966767;28;20050;-68
2021/11/09 09:59:52;;;;;;;37.15;12.05;;;;;;;;;;5010665;28;20045;-69
2021/11/09 10:02:27;;;;;;;31.10;12.55;;;;;;;;;;5061938;28;20044;-69
2021/11/09 10:05:02;;;;;;;29.77;12.15;;;;;;;;;;5071346;28;20474;-69
2021/11/09 10:07:39;;;;;;;35.35;12.90;;;;;;;;;;5061283;28;20052;-69
2021/11/09 10:10:12;;;;;;;33.80;13.57;;;;;;;;;;5067110;28;20045;-69
2021/11/09 10:12:40;;;;;;;32.33;11.50;;;;;;;;;;5061620;28;20059;-69
2021/11/09 10:15:14;;;;;;;32.38;11.63;;;;;;;;;;5051886;28;20051;-69
2021/11/09 10:17:50;;;;;;;32.65;12.55;;;;;;;;;;5044340;28;20041;-69
2021/11/09 10:20:18;;;;;;;31.13;12.90;;;;;;;;;;5051464;28;20064;-69
2021/11/09 10:22:46;;;;;;;37.75;13.35;;;;;;;;;;5043474;28;20052;-69
2021/11/09 10:25:17;;;;;;;30.47;11.90;;;;;;;;;;5042240;28;20060;-69
2021/11/09 10:27:45;;;;;;;38.53;13.38;;;;;;;;;;5051176;28;20060;-69
2021/11/09 10:30:14;;;;;;;34.97;12.40;;;;;;;;;;5044156;28;20486;-69
2021/11/09 10:32:41;;;;;;;40.25;12.07;;;;;;;;;;5050091;28;20055;-70
2021/11/09 10:35:09;;;;;;;35.72;12.00;;;;;;;;;;5022858;28;20425;-69
2021/11/09 10:37:37;;;;;;;35.80;12.73;;;;;;;;;;5046139;28;20041;-69
2021/11/09 10:40:21;;;;;;;35.53;12.80;;;;;;;;;;5045176;28;20390;-69
2021/11/09 10:42:50;;;;;;;31.20;11.93;;;;;;;;;;5050457;28;20056;-69
2021/11/09 10:45:19;;;;;;;33.65;11.93;;;;;;;;;;5051379;28;20481;-69
2021/11/09 10:47:47;;;;;;;36.67;12.65;;;;;;;;;;5042112;28;20053;-70
2021/11/09 10:50:19;;;;;;;40.08;12.95;;;;;;;;;;5044513;28;20053;-69
2021/11/09 10:52:46;;;;;;;33.78;12.55;;;;;;;;;;5063366;28;20044;-69
2021/11/09 11:06:12;;;;;;;35.88;11.77;;;;;;;;;;5041662;28;20127;-69
2021/11/09 11:08:46;;;;;;;35.97;11.77;;;;;;;;;;5063294;28;20079;-69
2021/11/09 11:11:13;;;;;;;28.58;10.73;;;;;;;;;;5070698;28;20049;-69
2021/11/09 11:13:40;;;;;;;35.13;11.32;;;;;;;;;;5058740;28;20053;-69
2021/11/09 11:16:07;;;;;;;33.60;11.82;;;;;;;;;;5039473;28;20490;-69
2021/11/09 11:18:38;;;;;;;34.95;12.00;;;;;;;;;;5045968;28;20055;-69
2021/11/09 11:21:06;;;;;;;40.13;13.38;;;;;;;;;;5043573;28;20522;-70
2021/11/09 11:23:34;;;;;;;24.17;10.52;;;;;;;;;;5051028;28;20052;-69
2021/11/09 11:26:00;;;;;;;32.92;11.43;;;;;;;;;;5044844;28;20808;-69
2021/11/09 11:28:28;;;;;;;36.33;11.18;;;;;;;;;;5048333;28;20390;-69
2021/11/09 11:30:55;;;;;;;31.50;11.68;;;;;;;;;;5037427;28;20045;-69
2021/11/09 11:33:21;;;;;;;30.60;10.88;;;;;;;;;;5049797;28;20420;-69
2021/11/09 11:35:48;;;;;;;30.60;10.98;;;;;;;;;;5050326;28;20049;-70
2021/11/09 11:38:16;;;;;;;30.67;11.65;;;;;;;;;;5044149;28;20053;-69
2021/11/09 11:40:43;;;;;;;27.50;10.20;;;;;;;;;;5050634;28;20053;-69
2021/11/09 11:43:09;;;;;;;35.40;11.23;;;;;;;;;;5058266;28;20048;-69
2021/11/09 11:45:51;;;;;;;28.05;10.95;;;;;;;;;;5065612;28;20139;-69
2021/11/09 11:48:17;;;;;;;28.98;10.93;;;;;;;;;;5064025;28;20048;-69
2021/11/09 11:50:44;;;;;;;31.38;12.75;;;;;;;;;;5070480;28;20350;-68
2021/11/09 11:53:10;;;;;;;31.05;11.82;;;;;;;;;;5069941;28;20059;-69
2021/11/09 11:55:38;;;;;;;36.30;11.93;;;;;;;;;;5047506;28;20045;-69
2021/11/09 11:58:06;;;;;;;26.40;10.75;;;;;;;;;;5049951;28;20115;-69
2021/11/09 12:00:39;;;;;;;26.02;10.18;;;;;;;;;;5045388;28;20060;-69
2021/11/09 12:03:17;;;;;;;36.03;11.48;;;;;;;;;;5070401;28;20409;-69
2021/11/09 12:05:44;;;;;;;;;;;;;;;;;;5063986;28;20052;-69
2021/11/09 12:08:11;;;;;;;31.08;11.27;;;;;;;;;;5063377;28;19928;-69
2021/11/09 12:10:51;;;;;;;34.17;10.77;;;;;;;;;;5062012;28;20059;-69
2021/11/09 12:13:19;;;;;;;30.65;10.73;;;;;;;;;;5060969;28;20494;-69
2021/11/09 12:15:56;;;;;;;30.40;10.82;;;;;;;;;;5049286;28;20459;-70
2021/11/09 12:18:31;;;;;;;33.30;10.60;;;;;;;;;;5062826;28;20052;-70
2021/11/09 12:20:58;;;;;;;34.65;10.45;;;;;;;;;;5065135;28;20502;-69
2021/11/09 12:23:24;;;;;;;37.70;11.65;;;;;;;;;;5059046;28;20049;-69
2021/11/09 12:26:00;;;;;;;26.45;9.75;;;;;;;;;;5069269;28;20080;-69
2021/11/09 12:28:36;;;;;;;33.88;11.02;;;;;;;;;;5064042;28;20143;-69
2021/11/09 12:31:10;;;;;;;35.65;10.10;;;;;;;;;;5074128;28;20059;-69
2021/11/09 12:33:49;;;;;;;30.80;9.88;;;;;;;;;;5064196;28;20091;-69
2021/11/09 12:36:18;;;;;;;26.15;10.32;;;;;;;;;;5068063;28;20052;-69
2021/11/09 12:38:47;;;;;;;30.08;10.35;;;;;;;;;;5068141;28;20048;-69
2021/11/09 12:41:15;;;;;;;29.17;10.93;;;;;;;;;;5073150;28;20064;-69
2021/11/09 12:43:55;;;;;;;26.92;9.27;;;;;;;;;;5073113;28;20048;-69
2021/11/09 12:46:39;;;;;;;28.77;10.43;;;;;;;;;;5066651;28;20421;-69
2021/11/09 12:49:10;;;;;;;30.48;10.52;;;;;;;;;;5067924;28;20105;-68
2021/11/09 12:51:38;;;;;;;26.98;9.80;;;;;;;;;;5063397;28;20051;-68
2021/11/09 12:54:04;;;;;;;32.05;10.32;;;;;;;;;;5072031;28;20063;-68
2021/11/09 12:56:33;;;;;;;26.65;10.43;;;;;;;;;;5046195;28;20052;-69
2021/11/09 12:59:04;;;;;;;33.78;9.75;;;;;;;;;;5053030;28;20466;-69
2021/11/09 13:01:51;;;;;;;29.63;9.32;;;;;;;;;;5053420;28;20146;-68
2021/11/09 13:09:53;;;;;;;33.53;10.05;;;;;;;;;;5066866;28;20139;-69
2021/11/09 13:12:20;;;;;;;;;;;;;;;;;;5072834;28;20053;-69
2021/11/09 13:14:46;;;;;;;23.85;8.48;;;;;;;;;;5045201;28;19944;-69
2021/11/09 13:17:32;;;;;;;28.13;9.98;;;;;;;;;;5046379;28;20147;-68
2021/11/09 13:20:01;;;;;;;34.20;9.75;;;;;;;;;;5045680;28;20519;-69
2021/11/09 13:22:30;;;;;;;;;;;;;;;;;;5035648;28;20079;-70
2021/11/09 13:24:58;;;;;;;28.17;8.73;;;;;;;;;;5045279;28;19931;-69
2021/11/09 13:27:46;;;;;;;30.90;9.43;;;;;;;;;;5052583;28;20104;-69
2021/11/09 13:30:14;;;;;;;24.10;8.70;;;;;;;;;;5041622;28;20414;-68
2021/11/09 13:32:42;;;;;;;26.20;9.07;;;;;;;;;;5047550;28;20057;-69
2021/11/09 13:35:37;;;;;;;27.63;9.17;;;;;;;;;;5052323;28;20049;-70
2021/11/09 13:38:11;;;;;;;27.65;9.70;;;;;;;;;;5058313;28;20056;-69
2021/11/09 13:40:41;;;;;;;28.10;8.50;;;;;;;;;;5071726;28;20041;-69
2021/11/09 13:43:11;;;;;;;26.88;8.50;;;;;;;;;;5063183;28;20660;-69
2021/11/09 13:45:38;;;;;;;30.08;8.27;;;;;;;;;;5067948;28;20413;-68
2021/11/09 13:48:12;;;;;;;25.20;8.20;;;;;;;;;;5065573;28;20049;-69
2021/11/09 13:50:39;;;;;;;29.38;7.97;;;;;;;;;;5054116;28;20140;-69
2021/11/09 13:53:06;;;;;;;24.73;7.57;;;;;;;;;;5065150;28;20381;-69
2021/11/09 13:55:34;;;;;;;23.38;7.50;;;;;;;;;;5056372;28;20689;-68
2021/11/09 13:58:01;;;;;;;26.92;8.05;;;;;;;;;;5046137;28;20051;-68
2021/11/09 14:00:32;;;;;;;28.35;7.20;;;;;;;;;;5046310;28;20391;-69
2021/11/09 14:03:10;;;;;;;23.65;6.88;;;;;;;;;;5072288;28;20053;-68
2021/11/09 14:16:46;;;;;;;27.58;7.40;;;;;;;;;;5044891;28;20056;-68
2021/11/09 14:19:14;;;;;;;31.33;7.75;;;;;;;;;;5051204;28;20056;-69
2021/11/09 14:21:42;;;;;;;29.52;7.28;;;;;;;;;;5043444;28;20064;-68
2021/11/09 14:24:16;;;;;;;29.33;8.50;;;;;;;;;;5044010;28;20139;-68
2021/11/09 14:26:43;;;;;;;23.50;6.15;;;;;;;;;;5044193;28;20063;-68
2021/11/09 14:29:21;;;;;;;26.33;7.03;;;;;;;;;;5050401;28;20060;-68
2021/11/09 14:32:06;;;;;;;25.45;6.30;;;;;;;;;;5070745;28;20727;-67
2021/11/09 14:34:32;;;;;;;25.67;7.60;;;;;;;;;;5063761;28;20037;-68
2021/11/09 14:37:08;;;;;;;25.23;6.63;;;;;;;;;;5066761;28;20053;-69
2021/11/09 14:39:40;;;;;;;19.40;6.60;;;;;;;;;;5053027;28;20075;-68
2021/11/09 14:42:24;;;;;;;25.02;6.97;;;;;;;;;;5071599;28;20382;-69
2021/11/09 14:45:19;;;;;;;32.42;7.03;;;;;;;;;;5064315;28;20052;-69
2021/11/09 14:47:47;;;;;;;27.13;7.00;;;;;;;;;;5070251;28;20054;-69
2021/11/09 14:50:20;;;;;;;31.65;7.95;;;;;;;;;;5059254;28;20399;-69
2021/11/09 14:52:47;;;;;;;26.17;6.50;;;;;;;;;;5066033;28;20049;-68
2021/11/09 14:55:30;;;;;;;34.95;6.88;;;;;;;;;;5053646;28;20053;-68
2021/11/09 14:58:00;;;;;;;30.88;6.90;;;;;;;;;;5050442;28;20053;-68
2021/11/09 15:00:27;;;;;;;27.60;6.82;;;;;;;;;;5052008;28;20378;-69
2021/11/09 15:03:01;;;;;;;24.38;6.47;;;;;;;;;;5041781;28;20124;-68
2021/11/09 15:05:28;;;;;;;23.67;6.32;;;;;;;;;;5066064;28;20063;-69
2021/11/09 15:10:38;;;;;;;21.65;5.85;;;;;;;;;;5070377;28;20052;-69
2021/11/09 15:13:17;;;;;;;27.00;6.78;;;;;;;;;;5057596;28;20045;-69
2021/11/09 15:27:18;;;;;;;21.30;5.15;;;;;;;;;;5050235;28;20049;-69
2021/11/09 15:32:11;;;;;;;24.45;6.10;;;;;;;;;;5050579;28;20049;-69
2021/11/09 15:39:47;;;;;;;27.48;7.60;;;;;;;;;;5048812;28;20092;-69
2021/11/09 15:42:15;;;;;;;21.90;5.68;;;;;;;;;;5035660;28;20045;-70
2021/11/09 15:44:42;;;;;;;21.67;6.25;;;;;;;;;;5048868;28;20144;-69
2021/11/09 15:47:10;;;;;;;25.38;5.53;;;;;;;;;;5043443;28;20045;-70
2021/11/09 15:49:37;;;;;;;27.02;6.15;;;;;;;;;;5049939;28;20148;-70
2021/11/09 15:52:04;;;;;;;26.30;6.30;;;;;;;;;;5043507;28;20436;-70
2021/11/09 15:54:50;;;;;;;19.33;5.55;;;;;;;;;;5044840;28;20045;-70
2021/11/09 15:57:18;;;;;;;23.05;6.15;;;;;;;;;;5044776;28;20067;-69
2021/11/09 15:59:44;;;;;;;17.52;5.85;;;;;;;;;;5045427;28;20048;-69
2021/11/09 16:02:11;;;;;;;21.30;6.03;;;;;;;;;;5065585;28;20049;-70
2021/11/09 16:04:41;;;;;;;24.52;5.97;;;;;;;;;;5069517;28;20102;-69
2021/11/09 16:07:07;;;;;;;23.13;6.35;;;;;;;;;;5076171;28;20132;-69
2021/11/09 16:09:35;;;;;;;22.45;7.53;;;;;;;;;;5061123;28;20532;-69
2021/11/09 16:12:03;;;;;;;18.30;5.60;;;;;;;;;;5075590;28;20394;-69
2021/11/09 16:14:29;;;;;;;15.00;6.00;;;;;;;;;;5051446;28;20045;-69
2021/11/09 16:16:55;;;;;;;25.83;6.38;;;;;;;;;;5055815;28;20045;-69
2021/11/09 16:19:22;;;;;;;23.95;7.10;;;;;;;;;;5056445;28;20049;-69
2021/11/09 16:21:48;;;;;;;19.73;5.65;;;;;;;;;;5044845;28;20056;-69
2021/11/09 16:24:15;;;;;;;21.65;5.78;;;;;;;;;;5051536;28;20063;-69
2021/11/09 16:26:41;;;;;;;17.58;4.72;;;;;;;;;;5049444;28;20056;-69
2021/11/09 16:29:08;;;;;;;22.67;5.82;;;;;;;;;;5056137;28;20417;-69
2021/11/09 16:31:35;;;;;;;18.00;5.63;;;;;;;;;;5049516;28;20486;-69
2021/11/09 16:34:01;;;;;;;20.85;5.80;;;;;;;;;;5056262;28;20056;-69
2021/11/09 16:36:31;;;;;;;20.33;5.43;;;;;;;;;;5050607;28;20506;-69
2021/11/09 16:39:11;;;;;;;21.52;6.90;;;;;;;;;;5046529;28;20059;-69
2021/11/09 16:41:38;;;;;;;23.90;7.55;;;;;;;;;;5056242;28;20045;-69
2021/11/09 16:44:07;;;;;;;21.42;7.65;;;;;;;;;;5050252;28;20397;-69
2021/11/09 16:49:12;;;;;;;20.20;6.30;;;;;;;;;;5045642;28;20454;-69
2021/11/09 16:51:41;;;;;;;25.30;8.23;;;;;;;;;;5051140;28;20055;-69
2021/11/09 16:54:22;;;;;;;31.70;8.18;;;;;;;;;;5049300;28;20049;-69
2021/11/09 16:57:04;;;;;;;21.58;8.13;;;;;;;;;;5055683;28;20045;-69
2021/11/09 17:02:29;;;;;;;28.08;9.32;;;;;;;;;;5070771;28;20370;-69
2021/11/09 17:08:08;;;;;;;23.17;7.63;;;;;;;;;;5075330;28;20136;-69
2021/11/09 17:14:44;;;;;;;26.52;9.02;;;;;;;;;;5067782;28;20056;-69
2021/11/09 17:22:07;;;;;;;23.08;7.88;;;;;;;;;;5048568;28;20056;-69
2021/11/09 18:16:46;;;;;;;26.00;9.00;;;;;;;;;;5027339;28;20518;-69
2021/11/09 18:21:58;;;;;;;26.98;9.20;;;;;;;;;;5071068;28;20489;-69
2021/11/09 18:24:24;;;;;;;18.92;8.50;;;;;;;;;;5063631;28;20504;-69